sensor_id;sensor_type;location;lat;lon;timestamp;P1;durP1;ratioP1;P2;durP2;ratioP2
23555;SDS011;11956;53.184;8.578;2023-02-23T00:01:00;41.20;;;23.05;;
23555;SDS011;11956;53.184;8.578;2023-02-23T00:04:01;40.60;;;23.85;;
23555;SDS011;11956;53.184;8.578;2023-02-23T00:07:03;38.25;;;23.90;;
23555;SDS011;11956;53.184;8.578;2023-02-23T00:10:07;44.22;;;24.02;;
23555;SDS011;11956;53.184;8.578;2023-02-23T00:13:11;38.25;;;22.77;;
23555;SDS011;11956;53.184;8.578;2023-02-23T00:16:13;38.40;;;23.95;;
23555;SDS011;11956;53.184;8.578;2023-02-23T00:19:18;38.95;;;23.15;;
23555;SDS011;11956;53.184;8.578;2023-02-23T00:22:19;48.55;;;26.30;;
23555;SDS011;11956;53.184;8.578;2023-02-23T00:25:20;41.05;;;24.08;;
23555;SDS011;11956;53.184;8.578;2023-02-23T00:28:22;49.65;;;25.33;;
23555;SDS011;11956;53.184;8.578;2023-02-23T00:31:23;43.08;;;25.05;;
23555;SDS011;11956;53.184;8.578;2023-02-23T00:34:26;42.07;;;23.90;;
23555;SDS011;11956;53.184;8.578;2023-02-23T00:37:27;45.75;;;26.05;;
23555;SDS011;11956;53.184;8.578;2023-02-23T00:40:27;43.00;;;24.38;;
23555;SDS011;11956;53.184;8.578;2023-02-23T00:43:31;42.45;;;24.95;;
23555;SDS011;11956;53.184;8.578;2023-02-23T00:46:34;51.88;;;27.67;;
23555;SDS011;11956;53.184;8.578;2023-02-23T00:49:35;51.42;;;30.98;;
23555;SDS011;11956;53.184;8.578;2023-02-23T00:52:36;56.45;;;31.77;;
23555;SDS011;11956;53.184;8.578;2023-02-23T00:55:39;53.55;;;31.38;;
23555;SDS011;11956;53.184;8.578;2023-02-23T00:58:41;56.88;;;33.25;;
23555;SDS011;11956;53.184;8.578;2023-02-23T01:01:42;57.75;;;33.97;;
23555;SDS011;11956;53.184;8.578;2023-02-23T01:04:44;61.30;;;34.55;;
23555;SDS011;11956;53.184;8.578;2023-02-23T01:07:44;54.10;;;32.42;;
23555;SDS011;11956;53.184;8.578;2023-02-23T01:10:45;62.15;;;34.15;;
23555;SDS011;11956;53.184;8.578;2023-02-23T01:13:53;60.53;;;34.60;;
23555;SDS011;11956;53.184;8.578;2023-02-23T01:16:57;61.55;;;35.05;;
23555;SDS011;11956;53.184;8.578;2023-02-23T01:19:59;66.20;;;35.08;;
23555;SDS011;11956;53.184;8.578;2023-02-23T01:23:00;68.15;;;37.47;;
23555;SDS011;11956;53.184;8.578;2023-02-23T01:26:01;58.47;;;35.35;;
23555;SDS011;11956;53.184;8.578;2023-02-23T01:29:06;64.57;;;34.63;;
23555;SDS011;11956;53.184;8.578;2023-02-23T01:32:13;61.53;;;35.63;;
23555;SDS011;11956;53.184;8.578;2023-02-23T01:35:14;66.80;;;37.03;;
23555;SDS011;11956;53.184;8.578;2023-02-23T01:38:16;69.93;;;37.17;;
23555;SDS011;11956;53.184;8.578;2023-02-23T01:41:17;62.15;;;35.58;;
23555;SDS011;11956;53.184;8.578;2023-02-23T01:47:20;72.57;;;38.67;;
23555;SDS011;11956;53.184;8.578;2023-02-23T01:50:23;66.43;;;35.95;;
23555;SDS011;11956;53.184;8.578;2023-02-23T01:56:30;67.10;;;35.80;;
23555;SDS011;11956;53.184;8.578;2023-02-23T01:59:38;67.72;;;37.50;;
23555;SDS011;11956;53.184;8.578;2023-02-23T02:02:44;63.90;;;35.00;;
23555;SDS011;11956;53.184;8.578;2023-02-23T02:08:50;69.65;;;35.83;;
23555;SDS011;11956;53.184;8.578;2023-02-23T02:11:55;70.95;;;37.00;;
23555;SDS011;11956;53.184;8.578;2023-02-23T02:14:57;67.38;;;36.47;;
23555;SDS011;11956;53.184;8.578;2023-02-23T02:18:17;68.30;;;37.00;;
23555;SDS011;11956;53.184;8.578;2023-02-23T02:42:59;69.90;;;36.28;;
23555;SDS011;11956;53.184;8.578;2023-02-23T02:55:35;67.90;;;36.63;;
23555;SDS011;11956;53.184;8.578;2023-02-23T02:58:42;71.13;;;35.65;;
23555;SDS011;11956;53.184;8.578;2023-02-23T03:01:45;72.28;;;38.42;;
23555;SDS011;11956;53.184;8.578;2023-02-23T03:05:16;69.57;;;36.67;;
23555;SDS011;11956;53.184;8.578;2023-02-23T03:08:49;68.57;;;35.40;;
23555;SDS011;11956;53.184;8.578;2023-02-23T03:16:20;74.40;;;37.85;;
23555;SDS011;11956;53.184;8.578;2023-02-23T03:20:40;67.90;;;35.25;;
23555;SDS011;11956;53.184;8.578;2023-02-23T03:27:22;75.57;;;39.10;;
23555;SDS011;11956;53.184;8.578;2023-02-23T03:31:21;70.95;;;37.30;;
23555;SDS011;11956;53.184;8.578;2023-02-23T03:42:20;70.93;;;36.00;;
23555;SDS011;11956;53.184;8.578;2023-02-23T03:45:46;71.18;;;38.42;;
23555;SDS011;11956;53.184;8.578;2023-02-23T03:49:07;70.18;;;37.20;;
23555;SDS011;11956;53.184;8.578;2023-02-23T03:52:38;75.47;;;39.15;;
23555;SDS011;11956;53.184;8.578;2023-02-23T03:56:05;73.32;;;37.83;;
23555;SDS011;11956;53.184;8.578;2023-02-23T03:59:29;69.78;;;36.97;;
23555;SDS011;11956;53.184;8.578;2023-02-23T04:02:52;76.03;;;38.22;;
23555;SDS011;11956;53.184;8.578;2023-02-23T04:06:15;69.43;;;35.75;;
23555;SDS011;11956;53.184;8.578;2023-02-23T04:09:36;69.68;;;36.20;;
23555;SDS011;11956;53.184;8.578;2023-02-23T04:12:59;72.53;;;37.58;;
23555;SDS011;11956;53.184;8.578;2023-02-23T04:16:17;69.63;;;36.25;;
23555;SDS011;11956;53.184;8.578;2023-02-23T04:19:18;70.80;;;36.83;;
23555;SDS011;11956;53.184;8.578;2023-02-23T04:22:19;75.90;;;37.50;;
23555;SDS011;11956;53.184;8.578;2023-02-23T04:25:21;73.18;;;37.08;;
23555;SDS011;11956;53.184;8.578;2023-02-23T04:28:26;69.05;;;36.15;;
23555;SDS011;11956;53.184;8.578;2023-02-23T04:31:28;83.25;;;38.65;;
23555;SDS011;11956;53.184;8.578;2023-02-23T04:34:29;80.32;;;38.47;;
23555;SDS011;11956;53.184;8.578;2023-02-23T04:37:29;82.72;;;38.92;;
23555;SDS011;11956;53.184;8.578;2023-02-23T04:40:31;78.85;;;37.67;;
23555;SDS011;11956;53.184;8.578;2023-02-23T04:43:32;83.43;;;38.50;;
23555;SDS011;11956;53.184;8.578;2023-02-23T04:46:33;82.00;;;37.92;;
23555;SDS011;11956;53.184;8.578;2023-02-23T04:49:33;87.82;;;39.83;;
23555;SDS011;11956;53.184;8.578;2023-02-23T04:52:34;87.25;;;38.97;;
23555;SDS011;11956;53.184;8.578;2023-02-23T04:55:36;87.38;;;40.08;;
23555;SDS011;11956;53.184;8.578;2023-02-23T04:58:37;76.03;;;36.65;;
23555;SDS011;11956;53.184;8.578;2023-02-23T05:01:38;97.03;;;41.85;;
23555;SDS011;11956;53.184;8.578;2023-02-23T05:04:39;94.13;;;41.40;;
23555;SDS011;11956;53.184;8.578;2023-02-23T05:07:40;87.40;;;39.22;;
23555;SDS011;11956;53.184;8.578;2023-02-23T05:10:41;93.03;;;39.95;;
23555;SDS011;11956;53.184;8.578;2023-02-23T05:13:42;85.85;;;39.47;;
23555;SDS011;11956;53.184;8.578;2023-02-23T05:16:43;92.35;;;39.92;;
23555;SDS011;11956;53.184;8.578;2023-02-23T05:19:44;97.65;;;41.80;;
23555;SDS011;11956;53.184;8.578;2023-02-23T05:22:45;94.30;;;41.83;;
23555;SDS011;11956;53.184;8.578;2023-02-23T05:25:46;96.78;;;40.97;;
23555;SDS011;11956;53.184;8.578;2023-02-23T05:28:46;90.78;;;39.55;;
23555;SDS011;11956;53.184;8.578;2023-02-23T05:31:48;94.00;;;39.92;;
23555;SDS011;11956;53.184;8.578;2023-02-23T05:34:48;110.88;;;44.00;;
23555;SDS011;11956;53.184;8.578;2023-02-23T05:37:49;100.95;;;43.20;;
23555;SDS011;11956;53.184;8.578;2023-02-23T05:40:50;108.32;;;44.15;;
23555;SDS011;11956;53.184;8.578;2023-02-23T05:43:53;109.35;;;45.05;;
23555;SDS011;11956;53.184;8.578;2023-02-23T05:46:54;102.80;;;43.77;;
23555;SDS011;11956;53.184;8.578;2023-02-23T05:49:55;106.07;;;42.97;;
23555;SDS011;11956;53.184;8.578;2023-02-23T05:52:56;103.25;;;42.78;;
23555;SDS011;11956;53.184;8.578;2023-02-23T05:55:57;112.78;;;43.78;;
23555;SDS011;11956;53.184;8.578;2023-02-23T05:58:58;123.70;;;47.88;;
23555;SDS011;11956;53.184;8.578;2023-02-23T06:01:59;113.70;;;46.63;;
23555;SDS011;11956;53.184;8.578;2023-02-23T06:04:59;106.97;;;45.25;;
23555;SDS011;11956;53.184;8.578;2023-02-23T06:08:00;112.28;;;46.95;;
23555;SDS011;11956;53.184;8.578;2023-02-23T06:11:01;130.93;;;48.45;;
23555;SDS011;11956;53.184;8.578;2023-02-23T06:14:03;124.05;;;47.60;;
23555;SDS011;11956;53.184;8.578;2023-02-23T06:17:04;117.82;;;47.10;;
23555;SDS011;11956;53.184;8.578;2023-02-23T06:20:05;133.30;;;48.05;;
23555;SDS011;11956;53.184;8.578;2023-02-23T06:23:06;122.80;;;47.72;;
23555;SDS011;11956;53.184;8.578;2023-02-23T06:26:08;128.18;;;49.17;;
23555;SDS011;11956;53.184;8.578;2023-02-23T06:32:18;126.70;;;49.45;;
23555;SDS011;11956;53.184;8.578;2023-02-23T06:35:22;127.78;;;47.83;;
23555;SDS011;11956;53.184;8.578;2023-02-23T06:38:24;121.13;;;48.30;;
23555;SDS011;11956;53.184;8.578;2023-02-23T06:41:25;121.07;;;49.45;;
23555;SDS011;11956;53.184;8.578;2023-02-23T06:44:26;129.00;;;49.55;;
23555;SDS011;11956;53.184;8.578;2023-02-23T06:47:27;130.52;;;50.17;;
23555;SDS011;11956;53.184;8.578;2023-02-23T06:50:28;128.48;;;49.70;;
23555;SDS011;11956;53.184;8.578;2023-02-23T06:53:29;117.20;;;47.80;;
23555;SDS011;11956;53.184;8.578;2023-02-23T06:56:30;119.63;;;48.25;;
23555;SDS011;11956;53.184;8.578;2023-02-23T06:59:31;125.15;;;49.63;;
23555;SDS011;11956;53.184;8.578;2023-02-23T07:02:32;122.13;;;48.08;;
23555;SDS011;11956;53.184;8.578;2023-02-23T07:05:34;132.15;;;50.40;;
23555;SDS011;11956;53.184;8.578;2023-02-23T07:08:35;129.18;;;48.63;;
23555;SDS011;11956;53.184;8.578;2023-02-23T07:11:36;122.97;;;47.92;;
23555;SDS011;11956;53.184;8.578;2023-02-23T07:14:37;134.02;;;51.05;;
23555;SDS011;11956;53.184;8.578;2023-02-23T07:17:38;122.05;;;48.08;;
23555;SDS011;11956;53.184;8.578;2023-02-23T07:20:39;120.55;;;47.88;;
23555;SDS011;11956;53.184;8.578;2023-02-23T07:23:40;134.55;;;50.63;;
23555;SDS011;11956;53.184;8.578;2023-02-23T07:26:41;120.95;;;48.20;;
23555;SDS011;11956;53.184;8.578;2023-02-23T07:29:46;120.95;;;47.58;;
23555;SDS011;11956;53.184;8.578;2023-02-23T07:32:47;128.13;;;49.72;;
23555;SDS011;11956;53.184;8.578;2023-02-23T07:35:48;130.18;;;49.40;;
23555;SDS011;11956;53.184;8.578;2023-02-23T07:38:50;116.68;;;46.95;;
23555;SDS011;11956;53.184;8.578;2023-02-23T07:41:51;140.45;;;52.20;;
23555;SDS011;11956;53.184;8.578;2023-02-23T07:44:52;150.55;;;51.47;;
23555;SDS011;11956;53.184;8.578;2023-02-23T07:47:53;134.48;;;50.15;;
23555;SDS011;11956;53.184;8.578;2023-02-23T07:50:53;141.38;;;52.17;;
23555;SDS011;11956;53.184;8.578;2023-02-23T07:53:54;143.98;;;51.38;;
23555;SDS011;11956;53.184;8.578;2023-02-23T07:56:55;151.00;;;53.72;;
23555;SDS011;11956;53.184;8.578;2023-02-23T07:59:56;162.40;;;55.00;;
23555;SDS011;11956;53.184;8.578;2023-02-23T08:02:58;169.10;;;52.83;;
23555;SDS011;11956;53.184;8.578;2023-02-23T08:06:00;204.77;;;58.38;;
23555;SDS011;11956;53.184;8.578;2023-02-23T08:09:01;191.50;;;57.30;;
23555;SDS011;11956;53.184;8.578;2023-02-23T08:12:03;180.57;;;56.17;;
23555;SDS011;11956;53.184;8.578;2023-02-23T08:15:05;200.13;;;59.55;;
23555;SDS011;11956;53.184;8.578;2023-02-23T08:18:07;201.60;;;60.25;;
23555;SDS011;11956;53.184;8.578;2023-02-23T08:21:08;211.77;;;59.55;;
23555;SDS011;11956;53.184;8.578;2023-02-23T08:24:10;212.02;;;60.10;;
23555;SDS011;11956;53.184;8.578;2023-02-23T08:27:10;183.18;;;57.92;;
23555;SDS011;11956;53.184;8.578;2023-02-23T08:30:12;181.05;;;56.20;;
23555;SDS011;11956;53.184;8.578;2023-02-23T08:33:14;183.73;;;56.67;;
23555;SDS011;11956;53.184;8.578;2023-02-23T08:36:15;206.98;;;60.33;;
23555;SDS011;11956;53.184;8.578;2023-02-23T08:39:16;173.18;;;56.05;;
23555;SDS011;11956;53.184;8.578;2023-02-23T08:42:17;200.90;;;58.13;;
23555;SDS011;11956;53.184;8.578;2023-02-23T08:45:18;200.00;;;58.55;;
23555;SDS011;11956;53.184;8.578;2023-02-23T08:48:19;199.20;;;56.58;;
23555;SDS011;11956;53.184;8.578;2023-02-23T08:54:24;180.07;;;54.50;;
23555;SDS011;11956;53.184;8.578;2023-02-23T08:57:26;166.18;;;54.25;;
23555;SDS011;11956;53.184;8.578;2023-02-23T09:00:26;161.82;;;55.05;;
23555;SDS011;11956;53.184;8.578;2023-02-23T09:03:28;159.10;;;51.47;;
23555;SDS011;11956;53.184;8.578;2023-02-23T09:06:30;152.15;;;52.75;;
23555;SDS011;11956;53.184;8.578;2023-02-23T09:09:34;150.32;;;50.53;;
23555;SDS011;11956;53.184;8.578;2023-02-23T09:12:35;144.38;;;49.45;;
23555;SDS011;11956;53.184;8.578;2023-02-23T09:15:38;155.23;;;51.70;;
23555;SDS011;11956;53.184;8.578;2023-02-23T09:18:40;152.13;;;50.45;;
23555;SDS011;11956;53.184;8.578;2023-02-23T09:21:42;155.75;;;49.38;;
23555;SDS011;11956;53.184;8.578;2023-02-23T09:24:43;139.15;;;46.20;;
23555;SDS011;11956;53.184;8.578;2023-02-23T09:27:44;140.68;;;49.17;;
23555;SDS011;11956;53.184;8.578;2023-02-23T09:30:46;142.55;;;48.42;;
23555;SDS011;11956;53.184;8.578;2023-02-23T09:33:47;139.98;;;46.97;;
23555;SDS011;11956;53.184;8.578;2023-02-23T09:36:49;133.27;;;47.60;;
23555;SDS011;11956;53.184;8.578;2023-02-23T09:39:51;143.30;;;48.67;;
23555;SDS011;11956;53.184;8.578;2023-02-23T09:46:07;132.60;;;45.17;;
23555;SDS011;11956;53.184;8.578;2023-02-23T09:49:28;133.57;;;45.17;;
23555;SDS011;11956;53.184;8.578;2023-02-23T09:52:39;117.10;;;42.33;;
23555;SDS011;11956;53.184;8.578;2023-02-23T09:55:44;120.38;;;42.05;;
23555;SDS011;11956;53.184;8.578;2023-02-23T09:58:46;123.78;;;43.22;;
23555;SDS011;11956;53.184;8.578;2023-02-23T10:05:14;125.30;;;44.17;;
23555;SDS011;11956;53.184;8.578;2023-02-23T10:11:57;136.63;;;46.97;;
23555;SDS011;11956;53.184;8.578;2023-02-23T10:15:33;155.10;;;48.38;;
23555;SDS011;11956;53.184;8.578;2023-02-23T10:18:57;144.70;;;46.72;;
23555;SDS011;11956;53.184;8.578;2023-02-23T10:22:04;151.50;;;48.03;;
23555;SDS011;11956;53.184;8.578;2023-02-23T10:25:22;139.30;;;47.13;;
23555;SDS011;11956;53.184;8.578;2023-02-23T10:28:26;140.68;;;46.45;;
23555;SDS011;11956;53.184;8.578;2023-02-23T10:31:35;156.65;;;51.08;;
23555;SDS011;11956;53.184;8.578;2023-02-23T10:34:42;162.77;;;52.45;;
23555;SDS011;11956;53.184;8.578;2023-02-23T10:37:47;160.88;;;52.47;;
23555;SDS011;11956;53.184;8.578;2023-02-23T10:40:53;154.68;;;51.97;;
23555;SDS011;11956;53.184;8.578;2023-02-23T10:43:56;150.88;;;51.65;;
23555;SDS011;11956;53.184;8.578;2023-02-23T10:46:59;162.32;;;51.60;;
23555;SDS011;11956;53.184;8.578;2023-02-23T10:50:08;147.23;;;49.63;;
23555;SDS011;11956;53.184;8.578;2023-02-23T10:56:20;164.95;;;52.70;;
23555;SDS011;11956;53.184;8.578;2023-02-23T10:59:22;135.45;;;48.72;;
23555;SDS011;11956;53.184;8.578;2023-02-23T11:02:24;156.05;;;50.80;;
23555;SDS011;11956;53.184;8.578;2023-02-23T11:08:44;163.13;;;49.42;;
23555;SDS011;11956;53.184;8.578;2023-02-23T11:11:57;159.40;;;49.03;;
23555;SDS011;11956;53.184;8.578;2023-02-23T11:15:19;176.80;;;49.70;;
23555;SDS011;11956;53.184;8.578;2023-02-23T11:18:23;177.00;;;49.97;;
23555;SDS011;11956;53.184;8.578;2023-02-23T11:21:26;193.27;;;55.78;;
23555;SDS011;11956;53.184;8.578;2023-02-23T11:24:33;200.65;;;55.45;;
23555;SDS011;11956;53.184;8.578;2023-02-23T11:27:38;204.88;;;55.22;;
23555;SDS011;11956;53.184;8.578;2023-02-23T11:30:50;196.45;;;56.90;;
23555;SDS011;11956;53.184;8.578;2023-02-23T11:33:51;222.98;;;57.80;;
23555;SDS011;11956;53.184;8.578;2023-02-23T11:36:59;205.65;;;57.75;;
23555;SDS011;11956;53.184;8.578;2023-02-23T11:40:24;198.32;;;56.50;;
23555;SDS011;11956;53.184;8.578;2023-02-23T11:43:28;205.00;;;57.80;;
23555;SDS011;11956;53.184;8.578;2023-02-23T11:46:30;204.77;;;57.22;;
23555;SDS011;11956;53.184;8.578;2023-02-23T11:49:36;232.57;;;62.10;;
23555;SDS011;11956;53.184;8.578;2023-02-23T11:52:38;208.43;;;57.67;;
23555;SDS011;11956;53.184;8.578;2023-02-23T11:55:47;210.63;;;58.33;;
23555;SDS011;11956;53.184;8.578;2023-02-23T11:58:54;199.43;;;58.40;;
23555;SDS011;11956;53.184;8.578;2023-02-23T12:02:05;201.25;;;59.10;;
23555;SDS011;11956;53.184;8.578;2023-02-23T12:05:26;200.13;;;57.95;;
23555;SDS011;11956;53.184;8.578;2023-02-23T12:11:39;193.23;;;57.00;;
23555;SDS011;11956;53.184;8.578;2023-02-23T12:15:01;172.90;;;53.30;;
23555;SDS011;11956;53.184;8.578;2023-02-23T12:18:55;153.07;;;48.05;;
23555;SDS011;11956;53.184;8.578;2023-02-23T12:21:45;151.23;;;49.38;;
23555;SDS011;11956;53.184;8.578;2023-02-23T12:28:56;126.45;;;43.08;;
23555;SDS011;11956;53.184;8.578;2023-02-23T12:32:07;118.63;;;41.20;;
23555;SDS011;11956;53.184;8.578;2023-02-23T12:38:31;121.05;;;42.20;;
23555;SDS011;11956;53.184;8.578;2023-02-23T12:44:54;100.95;;;38.72;;
23555;SDS011;11956;53.184;8.578;2023-02-23T12:48:06;100.53;;;38.22;;
23555;SDS011;11956;53.184;8.578;2023-02-23T12:51:16;96.55;;;38.25;;
23555;SDS011;11956;53.184;8.578;2023-02-23T12:54:35;97.18;;;37.10;;
23555;SDS011;11956;53.184;8.578;2023-02-23T12:57:39;94.97;;;36.08;;
23555;SDS011;11956;53.184;8.578;2023-02-23T13:01:07;87.75;;;34.50;;
23555;SDS011;11956;53.184;8.578;2023-02-23T13:04:25;94.60;;;37.30;;
23555;SDS011;11956;53.184;8.578;2023-02-23T13:32:27;80.38;;;31.80;;
23555;SDS011;11956;53.184;8.578;2023-02-23T13:35:32;74.25;;;30.17;;
23555;SDS011;11956;53.184;8.578;2023-02-23T13:42:35;78.25;;;30.77;;
23555;SDS011;11956;53.184;8.578;2023-02-23T13:45:51;80.38;;;31.20;;
23555;SDS011;11956;53.184;8.578;2023-02-23T13:48:57;83.43;;;31.13;;
23555;SDS011;11956;53.184;8.578;2023-02-23T13:55:48;79.28;;;31.30;;
23555;SDS011;11956;53.184;8.578;2023-02-23T13:58:54;79.35;;;31.50;;
23555;SDS011;11956;53.184;8.578;2023-02-23T14:02:16;83.35;;;30.77;;
23555;SDS011;11956;53.184;8.578;2023-02-23T14:05:40;75.13;;;29.38;;
23555;SDS011;11956;53.184;8.578;2023-02-23T14:08:43;82.13;;;30.42;;
23555;SDS011;11956;53.184;8.578;2023-02-23T14:11:52;74.85;;;30.23;;
23555;SDS011;11956;53.184;8.578;2023-02-23T14:18:34;77.43;;;30.00;;
23555;SDS011;11956;53.184;8.578;2023-02-23T14:21:58;74.93;;;29.58;;
23555;SDS011;11956;53.184;8.578;2023-02-23T14:28:34;77.40;;;29.05;;
23555;SDS011;11956;53.184;8.578;2023-02-23T14:31:38;72.75;;;28.92;;
23555;SDS011;11956;53.184;8.578;2023-02-23T14:38:41;66.75;;;25.88;;
23555;SDS011;11956;53.184;8.578;2023-02-23T14:44:55;62.72;;;25.80;;
23555;SDS011;11956;53.184;8.578;2023-02-23T14:48:08;63.25;;;24.65;;
23555;SDS011;11956;53.184;8.578;2023-02-23T14:51:22;63.58;;;25.65;;
23555;SDS011;11956;53.184;8.578;2023-02-23T14:54:41;64.28;;;24.63;;
23555;SDS011;11956;53.184;8.578;2023-02-23T14:57:42;67.70;;;25.55;;
23555;SDS011;11956;53.184;8.578;2023-02-23T15:00:43;66.15;;;25.80;;
23555;SDS011;11956;53.184;8.578;2023-02-23T15:04:03;64.38;;;24.90;;
23555;SDS011;11956;53.184;8.578;2023-02-23T15:07:37;61.58;;;23.45;;
23555;SDS011;11956;53.184;8.578;2023-02-23T15:10:40;60.63;;;24.65;;
23555;SDS011;11956;53.184;8.578;2023-02-23T15:13:51;64.28;;;25.15;;
23555;SDS011;11956;53.184;8.578;2023-02-23T15:16:54;60.38;;;24.60;;
23555;SDS011;11956;53.184;8.578;2023-02-23T15:20:00;57.35;;;21.05;;
23555;SDS011;11956;53.184;8.578;2023-02-23T15:23:08;55.30;;;17.98;;
23555;SDS011;11956;53.184;8.578;2023-02-23T15:26:16;42.20;;;13.05;;
23555;SDS011;11956;53.184;8.578;2023-02-23T15:29:30;42.88;;;10.77;;
23555;SDS011;11956;53.184;8.578;2023-02-23T15:32:32;27.42;;;7.50;;
23555;SDS011;11956;53.184;8.578;2023-02-23T15:35:42;33.60;;;7.38;;
23555;SDS011;11956;53.184;8.578;2023-02-23T15:38:49;61.00;;;9.68;;
23555;SDS011;11956;53.184;8.578;2023-02-23T15:41:54;55.92;;;9.07;;
23555;SDS011;11956;53.184;8.578;2023-02-23T15:44:57;59.05;;;8.70;;
23555;SDS011;11956;53.184;8.578;2023-02-23T15:48:05;60.33;;;8.57;;
23555;SDS011;11956;53.184;8.578;2023-02-23T15:54:47;62.53;;;8.13;;
23555;SDS011;11956;53.184;8.578;2023-02-23T15:57:59;48.72;;;7.30;;
23555;SDS011;11956;53.184;8.578;2023-02-23T16:01:21;54.70;;;7.53;;
23555;SDS011;11956;53.184;8.578;2023-02-23T16:04:31;59.75;;;7.63;;
23555;SDS011;11956;53.184;8.578;2023-02-23T16:07:41;54.15;;;6.50;;
23555;SDS011;11956;53.184;8.578;2023-02-23T16:10:43;57.55;;;7.03;;
23555;SDS011;11956;53.184;8.578;2023-02-23T16:16:53;51.35;;;6.85;;
23555;SDS011;11956;53.184;8.578;2023-02-23T16:20:04;42.63;;;6.85;;
23555;SDS011;11956;53.184;8.578;2023-02-23T16:23:22;42.35;;;7.30;;
23555;SDS011;11956;53.184;8.578;2023-02-23T16:26:40;48.92;;;6.15;;
23555;SDS011;11956;53.184;8.578;2023-02-23T16:29:47;44.53;;;6.93;;
23555;SDS011;11956;53.184;8.578;2023-02-23T16:33:09;43.53;;;6.13;;
23555;SDS011;11956;53.184;8.578;2023-02-23T16:36:20;41.97;;;7.05;;
23555;SDS011;11956;53.184;8.578;2023-02-23T16:39:24;44.47;;;5.90;;
23555;SDS011;11956;53.184;8.578;2023-02-23T16:42:32;40.00;;;6.70;;
23555;SDS011;11956;53.184;8.578;2023-02-23T16:45:34;43.17;;;6.32;;
23555;SDS011;11956;53.184;8.578;2023-02-23T16:48:35;45.78;;;6.78;;
23555;SDS011;11956;53.184;8.578;2023-02-23T16:51:36;49.08;;;6.43;;
23555;SDS011;11956;53.184;8.578;2023-02-23T16:54:37;46.22;;;6.90;;
23555;SDS011;11956;53.184;8.578;2023-02-23T16:57:38;50.00;;;7.38;;
23555;SDS011;11956;53.184;8.578;2023-02-23T17:00:40;36.88;;;6.05;;
23555;SDS011;11956;53.184;8.578;2023-02-23T17:03:42;36.60;;;5.40;;
23555;SDS011;11956;53.184;8.578;2023-02-23T17:06:44;34.17;;;6.40;;
23555;SDS011;11956;53.184;8.578;2023-02-23T17:09:47;34.42;;;4.55;;
23555;SDS011;11956;53.184;8.578;2023-02-23T17:12:52;33.22;;;4.82;;
23555;SDS011;11956;53.184;8.578;2023-02-23T17:16:02;36.45;;;5.07;;
23555;SDS011;11956;53.184;8.578;2023-02-23T17:19:06;34.35;;;4.57;;
23555;SDS011;11956;53.184;8.578;2023-02-23T17:22:06;31.35;;;5.07;;
23555;SDS011;11956;53.184;8.578;2023-02-23T17:25:08;32.75;;;4.55;;
23555;SDS011;11956;53.184;8.578;2023-02-23T17:28:10;32.13;;;4.82;;
23555;SDS011;11956;53.184;8.578;2023-02-23T17:31:11;26.95;;;4.35;;
23555;SDS011;11956;53.184;8.578;2023-02-23T17:34:13;30.75;;;5.03;;
23555;SDS011;11956;53.184;8.578;2023-02-23T17:37:14;30.27;;;4.35;;
23555;SDS011;11956;53.184;8.578;2023-02-23T17:40:17;32.88;;;5.38;;
23555;SDS011;11956;53.184;8.578;2023-02-23T17:43:30;27.75;;;5.07;;
23555;SDS011;11956;53.184;8.578;2023-02-23T17:46:31;38.25;;;5.55;;
23555;SDS011;11956;53.184;8.578;2023-02-23T17:49:32;30.80;;;5.28;;
23555;SDS011;11956;53.184;8.578;2023-02-23T17:52:33;33.28;;;5.25;;
23555;SDS011;11956;53.184;8.578;2023-02-23T17:55:33;34.65;;;4.75;;
23555;SDS011;11956;53.184;8.578;2023-02-23T17:58:35;32.05;;;4.60;;
23555;SDS011;11956;53.184;8.578;2023-02-23T18:01:36;25.38;;;4.82;;
23555;SDS011;11956;53.184;8.578;2023-02-23T18:04:38;35.28;;;5.38;;
23555;SDS011;11956;53.184;8.578;2023-02-23T18:07:38;31.23;;;4.93;;
23555;SDS011;11956;53.184;8.578;2023-02-23T18:10:39;28.38;;;5.25;;
23555;SDS011;11956;53.184;8.578;2023-02-23T18:13:40;30.70;;;5.10;;
23555;SDS011;11956;53.184;8.578;2023-02-23T18:16:41;33.13;;;6.72;;
23555;SDS011;11956;53.184;8.578;2023-02-23T18:19:43;29.80;;;5.22;;
23555;SDS011;11956;53.184;8.578;2023-02-23T18:22:44;31.67;;;4.93;;
23555;SDS011;11956;53.184;8.578;2023-02-23T18:25:45;27.40;;;5.00;;
23555;SDS011;11956;53.184;8.578;2023-02-23T18:28:46;36.85;;;5.30;;
23555;SDS011;11956;53.184;8.578;2023-02-23T18:31:47;26.85;;;4.55;;
23555;SDS011;11956;53.184;8.578;2023-02-23T18:34:48;23.48;;;4.80;;
23555;SDS011;11956;53.184;8.578;2023-02-23T18:37:50;27.20;;;5.75;;
23555;SDS011;11956;53.184;8.578;2023-02-23T18:40:51;28.38;;;5.13;;
23555;SDS011;11956;53.184;8.578;2023-02-23T18:43:52;27.25;;;4.75;;
23555;SDS011;11956;53.184;8.578;2023-02-23T18:46:53;24.25;;;4.50;;
23555;SDS011;11956;53.184;8.578;2023-02-23T18:49:54;23.88;;;5.72;;
23555;SDS011;11956;53.184;8.578;2023-02-23T18:52:55;27.08;;;5.35;;
23555;SDS011;11956;53.184;8.578;2023-02-23T18:56:01;26.15;;;4.22;;
23555;SDS011;11956;53.184;8.578;2023-02-23T18:59:05;25.83;;;4.15;;
23555;SDS011;11956;53.184;8.578;2023-02-23T19:02:06;23.30;;;4.35;;
23555;SDS011;11956;53.184;8.578;2023-02-23T19:05:07;23.50;;;3.80;;
23555;SDS011;11956;53.184;8.578;2023-02-23T19:08:11;27.10;;;4.80;;
23555;SDS011;11956;53.184;8.578;2023-02-23T19:11:15;21.05;;;3.60;;
23555;SDS011;11956;53.184;8.578;2023-02-23T19:14:16;25.35;;;3.58;;
23555;SDS011;11956;53.184;8.578;2023-02-23T19:20:23;29.95;;;4.03;;
23555;SDS011;11956;53.184;8.578;2023-02-23T19:23:31;19.58;;;4.53;;
23555;SDS011;11956;53.184;8.578;2023-02-23T19:26:33;21.58;;;5.03;;
23555;SDS011;11956;53.184;8.578;2023-02-23T19:29:36;25.30;;;4.75;;
23555;SDS011;11956;53.184;8.578;2023-02-23T19:32:37;22.98;;;4.90;;
23555;SDS011;11956;53.184;8.578;2023-02-23T19:35:39;24.40;;;5.22;;
23555;SDS011;11956;53.184;8.578;2023-02-23T19:38:41;22.15;;;5.55;;
23555;SDS011;11956;53.184;8.578;2023-02-23T19:41:42;22.13;;;4.45;;
23555;SDS011;11956;53.184;8.578;2023-02-23T19:44:44;21.70;;;4.47;;
23555;SDS011;11956;53.184;8.578;2023-02-23T19:47:45;16.92;;;4.85;;
23555;SDS011;11956;53.184;8.578;2023-02-23T19:50:46;20.50;;;4.75;;
23555;SDS011;11956;53.184;8.578;2023-02-23T19:53:48;20.63;;;5.22;;
23555;SDS011;11956;53.184;8.578;2023-02-23T19:56:55;21.58;;;5.03;;
23555;SDS011;11956;53.184;8.578;2023-02-23T19:59:56;27.38;;;5.05;;
23555;SDS011;11956;53.184;8.578;2023-02-23T20:02:57;25.15;;;4.93;;
23555;SDS011;11956;53.184;8.578;2023-02-23T20:06:03;23.00;;;4.95;;
23555;SDS011;11956;53.184;8.578;2023-02-23T20:12:08;22.02;;;4.78;;
23555;SDS011;11956;53.184;8.578;2023-02-23T20:15:09;17.25;;;4.03;;
23555;SDS011;11956;53.184;8.578;2023-02-23T20:18:13;22.75;;;3.88;;
23555;SDS011;11956;53.184;8.578;2023-02-23T20:21:18;19.58;;;3.88;;
23555;SDS011;11956;53.184;8.578;2023-02-23T20:24:21;19.73;;;4.03;;
23555;SDS011;11956;53.184;8.578;2023-02-23T20:27:23;29.88;;;4.80;;
23555;SDS011;11956;53.184;8.578;2023-02-23T20:30:23;26.25;;;4.40;;
23555;SDS011;11956;53.184;8.578;2023-02-23T20:33:24;23.10;;;4.57;;
23555;SDS011;11956;53.184;8.578;2023-02-23T20:36:25;26.60;;;4.50;;